Time;durP1;ratioP1;P1;durP2;ratioP2;P2;SDS_P1;SDS_P2;PMS_P1;PMS_P2;Temp;Humidity;BMP_temperature;BMP_pressure;BME280_temperature;BME280_humidity;BME280_pressure;Samples;Min_cycle;Max_cycle;Signal;HPM_P1;HPM_P2
2022/11/06 00:00:32;;;;;;;21.37;16.63;;;;;;;4.68;100.00;97123.06;4956206;29;20202;-71
2022/11/06 00:02:59;;;;;;;21.47;16.93;;;;;;;4.62;100.00;97120.41;4956263;29;20190;-71
2022/11/06 00:08:10;;;;;;;24.23;16.33;;;;;;;4.50;100.00;97118.25;4956148;29;20248;-71
2022/11/06 00:10:36;;;;;;;21.07;17.57;;;;;;;4.54;100.00;97118.69;4938054;29;20577;-72
2022/11/06 00:13:01;;;;;;;22.20;18.00;;;;;;;4.43;100.00;97116.56;4955073;29;20204;-71
2022/11/06 00:15:27;;;;;;;24.00;18.53;;;;;;;4.50;100.00;97107.88;4956119;29;20197;-71
2022/11/06 00:17:53;;;;;;;19.80;17.17;;;;;;;4.39;100.00;97100.56;4955871;29;20192;-71
2022/11/06 00:20:18;;;;;;;23.60;17.73;;;;;;;4.46;100.00;97100.63;4955198;28;20222;-71
2022/11/06 00:22:44;;;;;;;21.00;16.63;;;;;;;4.54;100.00;97095.34;4956148;29;20746;-71
2022/11/06 00:25:09;;;;;;;23.33;17.50;;;;;;;4.47;100.00;97090.06;4955873;29;20189;-71
2022/11/06 00:27:36;;;;;;;21.80;16.33;;;;;;;4.53;100.00;97089.34;4955470;29;20686;-71
2022/11/06 00:30:04;;;;;;;22.47;16.33;;;;;;;4.51;100.00;97086.13;4955748;29;20241;-71
2022/11/06 00:32:30;;;;;;;24.23;17.03;;;;;;;4.54;100.00;97088.38;4955714;29;20593;-71
2022/11/06 00:34:55;;;;;;;19.03;16.93;;;;;;;4.52;100.00;97098.09;4955430;29;20189;-71
2022/11/06 00:37:20;;;;;;;23.97;17.67;;;;;;;4.49;100.00;97101.06;4942765;29;20268;-71
2022/11/06 00:39:46;;;;;;;26.67;19.03;;;;;;;4.48;100.00;97109.84;4936228;29;20273;-71
2022/11/06 00:42:11;;;;;;;21.87;17.80;;;;;;;4.38;100.00;97101.53;4918992;29;20198;-71
2022/11/06 00:44:36;;;;;;;21.60;17.63;;;;;;;4.33;100.00;97106.47;4936411;29;20206;-71
2022/11/06 00:47:02;;;;;;;19.37;17.33;;;;;;;4.23;100.00;97103.34;4936199;29;20198;-72
2022/11/06 00:49:27;;;;;;;18.80;16.80;;;;;;;4.28;100.00;97101.00;4919016;29;20201;-71
2022/11/06 00:51:53;;;;;;;17.50;15.60;;;;;;;4.33;100.00;97109.06;4935844;29;20267;-71
2022/11/06 00:54:18;;;;;;;14.97;13.47;;;;;;;4.28;100.00;97106.19;4935988;29;20201;-71
2022/11/06 00:56:44;;;;;;;16.57;14.23;;;;;;;4.40;100.00;97107.31;4936042;29;20257;-71
2022/11/06 00:59:11;;;;;;;17.17;13.80;;;;;;;4.42;100.00;97112.34;4935825;29;20640;-71
2022/11/06 01:01:39;;;;;;;16.57;14.53;;;;;;;4.44;100.00;97113.78;4936006;29;20190;-71
2022/11/06 01:04:12;;;;;;;15.13;13.53;;;;;;;4.40;100.00;97107.31;4935925;29;20194;-71
2022/11/06 01:06:43;;;;;;;15.93;13.83;;;;;;;4.41;100.00;97106.34;4935213;29;20260;-71
2022/11/06 01:09:11;;;;;;;18.93;14.00;;;;;;;4.30;100.00;97100.81;4935983;29;20189;-72
2022/11/06 01:11:40;;;;;;;14.87;13.27;;;;;;;4.29;100.00;97094.81;4934201;29;20190;-71
2022/11/06 01:14:08;;;;;;;18.80;15.07;;;;;;;4.29;100.00;97099.22;4935944;29;20217;-71
2022/11/06 01:16:34;;;;;;;17.83;14.73;;;;;;;4.30;100.00;97098.22;4935460;29;20186;-71
2022/11/06 01:19:00;;;;;;;19.40;16.40;;;;;;;4.34;100.00;97107.25;4925934;29;20200;-71
2022/11/06 01:21:28;;;;;;;19.93;16.07;;;;;;;4.28;100.00;97111.38;4935475;29;20201;-71
2022/11/06 01:23:56;;;;;;;19.37;16.07;;;;;;;4.16;100.00;97107.63;4935128;29;20213;-71
2022/11/06 01:26:22;;;;;;;18.57;15.77;;;;;;;4.25;100.00;97108.31;4935787;29;20186;-71
2022/11/06 01:28:48;;;;;;;22.87;16.10;;;;;;;4.28;100.00;97101.00;4935865;29;20189;-70
2022/11/06 01:31:17;;;;;;;20.97;16.87;;;;;;;4.09;100.00;97101.53;4918447;29;20570;-70
2022/11/06 01:33:42;;;;;;;19.17;15.87;;;;;;;4.01;100.00;97102.41;4935766;29;20189;-70
2022/11/06 01:36:10;;;;;;;22.17;17.03;;;;;;;4.00;100.00;97100.81;4937678;29;20232;-71
2022/11/06 01:38:38;;;;;;;20.23;16.53;;;;;;;3.85;100.00;97106.94;4947637;29;20213;-71
2022/11/06 01:41:04;;;;;;;18.17;15.53;;;;;;;3.78;100.00;97106.06;4935574;29;20292;-71
2022/11/06 01:43:49;;;;;;;21.97;17.30;;;;;;;3.78;100.00;97106.84;4935072;29;20270;-71
2022/11/06 01:46:16;;;;;;;22.73;16.47;;;;;;;3.73;100.00;97093.63;4935502;29;20273;-71
2022/11/06 01:48:46;;;;;;;19.63;16.20;;;;;;;3.89;100.00;97098.66;4943701;29;20659;-71
2022/11/06 01:51:13;;;;;;;21.37;17.43;;;;;;;3.76;100.00;97096.66;4954335;29;20177;-71
2022/11/06 01:53:38;;;;;;;23.33;17.37;;;;;;;3.76;100.00;97095.84;4934688;29;20197;-70
2022/11/06 01:56:08;;;;;;;19.97;16.50;;;;;;;3.66;100.00;97087.53;4940717;29;20185;-71
2022/11/06 01:58:36;;;;;;;19.23;15.97;;;;;;;3.80;100.00;97091.91;4954217;29;20529;-71
2022/11/06 02:01:03;;;;;;;24.13;16.87;;;;;;;3.73;100.00;97093.63;4954281;29;20217;-71
2022/11/06 02:03:28;;;;;;;22.17;16.50;;;;;;;3.80;100.00;97091.09;4953322;29;20706;-71
2022/11/06 02:05:56;;;;;;;21.97;16.90;;;;;;;3.91;100.00;97091.47;4941024;29;20325;-71
2022/11/06 02:08:23;;;;;;;21.00;16.77;;;;;;;3.86;100.00;97093.81;4937129;29;20197;-72
2022/11/06 02:10:49;;;;;;;21.47;17.13;;;;;;;3.83;100.00;97086.38;4953903;29;20276;-71
2022/11/06 02:13:14;;;;;;;21.67;16.73;;;;;;;3.83;100.00;97081.22;4937927;29;20190;-71
2022/11/06 02:15:52;;;;;;;21.90;17.17;;;;;;;3.80;100.00;97083.31;4954216;29;20244;-71
2022/11/06 02:18:24;;;;;;;20.70;16.50;;;;;;;3.77;100.00;97081.91;4952556;29;20216;-72
2022/11/06 02:21:09;;;;;;;19.50;15.97;;;;;;;3.65;100.00;97075.53;4954075;29;20217;-71
2022/11/06 02:24:02;;;;;;;18.83;15.67;;;;;;;3.70;100.00;97083.59;4952245;29;20181;-71
2022/11/06 02:26:48;;;;;;;21.17;16.43;;;;;;;3.67;100.00;97078.78;4935478;29;20178;-71
2022/11/06 02:29:33;;;;;;;21.57;16.70;;;;;;;3.60;100.00;97075.25;4934933;29;20182;-72
2022/11/06 02:32:05;;;;;;;21.70;17.07;;;;;;;3.70;100.00;97073.22;4940433;29;20252;-70
2022/11/06 02:34:34;;;;;;;19.87;16.17;;;;;;;3.70;100.00;97071.44;4945538;29;20206;-71
2022/11/06 02:37:13;;;;;;;20.10;16.17;;;;;;;3.53;100.00;97062.19;4935075;29;20281;-71
2022/11/06 02:39:43;;;;;;;19.50;15.70;;;;;;;3.61;100.00;97056.16;4934691;29;20198;-71
2022/11/06 02:42:11;;;;;;;20.63;17.60;;;;;;;3.64;100.00;97058.38;4918133;29;20589;-71
2022/11/06 02:44:39;;;;;;;23.43;18.17;;;;;;;3.65;100.00;97060.78;4938297;29;20647;-71
2022/11/06 02:47:08;;;;;;;23.93;17.57;;;;;;;3.68;100.00;97041.47;4938492;29;20213;-71
2022/11/06 02:49:42;;;;;;;22.93;18.33;;;;;;;3.67;100.00;97045.06;4938233;29;20244;-72
2022/11/06 02:52:13;;;;;;;24.87;18.37;;;;;;;3.44;100.00;97042.53;4938270;29;20190;-71
2022/11/06 02:54:44;;;;;;;23.73;17.60;;;;;;;3.40;100.00;97038.66;4938336;29;20229;-70
2022/11/06 02:57:14;;;;;;;21.27;18.07;;;;;;;3.40;100.00;97033.47;4938061;29;20644;-71
2022/11/06 03:00:01;;;;;;;23.70;18.80;;;;;;;3.25;100.00;97022.28;4938070;29;20555;-71
2022/11/06 03:02:34;;;;;;;30.13;19.03;;;;;;;3.35;100.00;97018.47;4937986;29;20178;-71
2022/11/06 03:05:07;;;;;;;22.80;18.53;;;;;;;3.33;100.00;97009.28;4937957;29;20213;-71
2022/11/06 03:07:37;;;;;;;23.23;18.47;;;;;;;3.28;100.00;97007.22;4938228;29;20517;-71
2022/11/06 03:10:05;;;;;;;22.60;17.47;;;;;;;3.35;100.00;97012.47;4938052;29;20204;-71
2022/11/06 03:12:53;;;;;;;23.80;18.87;;;;;;;3.17;100.00;97004.25;4936948;29;20198;-71
2022/11/06 03:15:37;;;;;;;21.67;17.37;;;;;;;3.17;100.00;97004.25;4938143;29;20650;-71
2022/11/06 03:18:41;;;;;;;23.97;18.20;;;;;;;3.04;100.00;97001.41;4937396;29;20185;-71
2022/11/06 03:21:19;;;;;;;22.13;17.20;;;;;;;3.02;100.00;97001.59;4925422;29;20221;-71
2022/11/06 03:24:00;;;;;;;23.53;17.10;;;;;;;3.00;100.00;97006.16;4937180;29;20201;-71
2022/11/06 03:26:36;;;;;;;25.20;17.07;;;;;;;2.83;100.00;97002.06;4920856;29;20189;-71
2022/11/06 03:29:15;;;;;;;18.37;16.37;;;;;;;2.55;100.00;97004.34;4937862;29;20174;-72
2022/11/06 03:31:51;;;;;;;23.77;15.60;;;;;;;2.65;100.00;97009.28;4920599;29;20190;-71
2022/11/06 03:34:26;;;;;;;33.37;14.33;;;;;;;2.38;100.00;97008.00;4922912;29;20609;-71
2022/11/06 03:37:01;;;;;;;16.50;14.20;;;;;;;2.35;100.00;96998.78;4946305;29;20255;-71
2022/11/06 03:39:31;;;;;;;15.60;13.90;;;;;;;2.38;100.00;97005.41;4943632;29;20241;-71
2022/11/06 03:42:07;;;;;;;16.97;14.47;;;;;;;2.24;100.00;96999.16;4944813;29;20208;-71
2022/11/06 03:44:37;;;;;;;19.50;15.03;;;;;;;2.39;100.00;96994.91;4956563;29;20191;-71
2022/11/06 03:47:21;;;;;;;16.53;13.63;;;;;;;2.36;100.00;97002.19;4956572;29;20188;-71
2022/11/06 03:49:57;;;;;;;15.83;13.33;;;;;;;2.23;100.00;96989.78;4956756;29;20642;-71
2022/11/06 03:52:51;;;;;;;15.57;13.97;;;;;;;2.21;100.00;96994.34;4956286;29;20216;-71
2022/11/06 03:55:22;;;;;;;20.33;14.20;;;;;;;2.25;100.00;96987.03;4934059;29;20305;-71
2022/11/06 03:57:55;;;;;;;16.77;13.57;;;;;;;2.25;100.00;96982.69;4950605;29;20181;-71
2022/11/06 04:00:21;;;;;;;16.23;14.47;;;;;;;2.25;100.00;96989.63;4938405;29;20205;-71
2022/11/06 04:03:03;;;;;;;17.13;14.07;;;;;;;2.13;100.00;96985.81;4956036;29;20635;-71
2022/11/06 04:05:33;;;;;;;15.37;13.03;;;;;;;2.18;100.00;96989.50;4938840;29;20228;-71
2022/11/06 04:16:17;;;;;;;15.47;12.00;;;;;;;1.87;100.00;96960.25;4937789;29;20652;-71
2022/11/06 04:18:42;;;;;;;12.10;10.90;;;;;;;1.82;100.00;96960.75;4938716;29;20281;-71
2022/11/06 04:21:37;;;;;;;12.63;11.33;;;;;;;1.68;100.00;96957.06;4948203;29;20213;-71
2022/11/06 04:27:23;;;;;;;11.97;10.77;;;;;;;1.58;100.00;96946.13;4947754;29;20181;-71
2022/11/06 04:30:00;;;;;;;12.67;11.40;;;;;;;1.70;100.00;96949.16;4936543;29;20619;-71
2022/11/06 04:32:56;;;;;;;12.37;10.77;;;;;;;1.69;100.00;96947.53;4936543;29;20182;-71
2022/11/06 04:35:37;;;;;;;12.20;11.00;;;;;;;1.78;100.00;96948.34;4919436;29;20249;-71
2022/11/06 04:38:30;;;;;;;12.70;11.40;;;;;;;1.79;100.00;96937.81;4935884;29;20718;-71
2022/11/06 04:41:01;;;;;;;12.63;10.97;;;;;;;1.85;100.00;96928.59;4902572;29;20232;-71
2022/11/06 04:43:43;;;;;;;13.83;12.30;;;;;;;1.93;100.00;96916.44;4936470;29;20255;-71
2022/11/06 04:46:12;;;;;;;13.93;11.80;;;;;;;1.92;100.00;96908.84;4936386;29;20178;-71
2022/11/06 04:48:39;;;;;;;13.73;11.70;;;;;;;1.92;100.00;96909.66;4935679;29;20281;-72
2022/11/06 04:51:09;;;;;;;13.30;11.97;;;;;;;2.01;100.00;96916.38;4936027;29;20553;-71
2022/11/06 04:53:36;;;;;;;15.57;12.30;;;;;;;2.20;100.00;96915.16;4936188;29;20641;-71
2022/11/06 04:56:12;;;;;;;16.53;11.67;;;;;;;2.28;100.00;96917.72;4936267;29;20188;-71
2022/11/06 04:58:38;;;;;;;15.57;11.80;;;;;;;2.41;100.00;96907.59;4921413;29;20241;-71
2022/11/06 05:01:04;;;;;;;17.80;12.50;;;;;;;2.54;100.00;96901.03;4935642;29;20615;-71
2022/11/06 05:03:30;;;;;;;16.53;11.80;;;;;;;2.62;100.00;96895.81;4936086;29;20273;-71
2022/11/06 05:05:55;;;;;;;15.60;12.50;;;;;;;2.57;100.00;96900.69;4935317;29;20213;-71
2022/11/06 05:08:20;;;;;;;16.07;12.93;;;;;;;2.57;100.00;96906.66;4936004;29;20196;-72
2022/11/06 05:10:47;;;;;;;16.87;13.10;;;;;;;2.65;100.00;96908.38;4918303;29;20205;-71
2022/11/06 05:13:14;;;;;;;14.97;12.83;;;;;;;2.71;100.00;96924.03;4935102;29;20198;-71
2022/11/06 05:15:40;;;;;;;17.20;13.67;;;;;;;2.77;100.00;96932.88;4935818;29;20695;-71
2022/11/06 05:18:05;;;;;;;17.17;13.70;;;;;;;2.74;100.00;96934.03;4935601;29;20217;-71
2022/11/06 05:20:31;;;;;;;16.07;12.87;;;;;;;2.79;100.00;96942.06;4935776;29;20229;-71
2022/11/06 05:22:57;;;;;;;18.90;13.17;;;;;;;2.81;100.00;96942.72;4935551;29;20213;-71
2022/11/06 05:25:33;;;;;;;17.53;13.87;;;;;;;2.76;100.00;96937.25;4935175;29;20277;-71
2022/11/06 05:28:00;;;;;;;19.67;13.43;;;;;;;2.67;100.00;96933.13;4935678;29;20224;-72
2022/11/06 05:30:26;;;;;;;18.73;14.43;;;;;;;2.75;100.00;96943.41;4935494;29;20197;-71
2022/11/06 05:32:52;;;;;;;16.87;14.17;;;;;;;2.77;100.00;96931.09;4935559;29;20237;-72
2022/11/06 05:35:19;;;;;;;17.10;13.83;;;;;;;2.74;100.00;96936.59;4935545;29;20332;-71
2022/11/06 05:37:44;;;;;;;25.93;14.00;;;;;;;2.74;100.00;96936.59;4935217;29;20734;-71
2022/11/06 05:40:10;;;;;;;19.10;15.00;;;;;;;2.85;100.00;96950.91;4918102;29;20353;-71
2022/11/06 05:42:40;;;;;;;17.73;14.27;;;;;;;2.83;100.00;96942.53;4935651;29;20217;-71
2022/11/06 05:45:06;;;;;;;18.60;14.20;;;;;;;2.84;100.00;96939.75;4935657;29;20250;-71
2022/11/06 05:47:32;;;;;;;20.47;14.23;;;;;;;2.84;100.00;96926.81;4935653;29;20610;-71
2022/11/06 05:49:57;;;;;;;17.17;13.30;;;;;;;2.75;100.00;96907.16;4935117;29;20202;-71
2022/11/06 05:52:22;;;;;;;17.97;14.10;;;;;;;2.75;100.00;96908.94;4935231;29;20279;-71
2022/11/06 05:54:48;;;;;;;16.63;14.03;;;;;;;2.77;100.00;96909.59;4935614;29;20186;-71
2022/11/06 05:57:13;;;;;;;20.30;14.77;;;;;;;2.78;100.00;96909.44;4935257;29;20189;-71
2022/11/06 05:59:38;;;;;;;22.33;13.77;;;;;;;2.83;100.00;96911.47;4935387;29;20233;-71
2022/11/06 06:02:04;;;;;;;17.70;13.87;;;;;;;2.88;100.00;96925.50;4934849;29;20666;-71
2022/11/06 06:04:29;;;;;;;18.23;13.03;;;;;;;2.84;100.00;96934.56;4935232;29;20186;-71
2022/11/06 06:06:54;;;;;;;17.90;13.93;;;;;;;2.88;100.00;96935.88;4918042;29;20269;-71
2022/11/06 06:09:20;;;;;;;16.03;13.63;;;;;;;2.98;100.00;96937.41;4935437;29;20205;-71
2022/11/06 06:11:45;;;;;;;17.40;13.30;;;;;;;2.96;100.00;96931.56;4934018;29;20198;-71
2022/11/06 06:14:10;;;;;;;16.23;13.40;;;;;;;2.90;100.00;96933.06;4935060;29;20200;-71
2022/11/06 06:16:36;;;;;;;20.40;14.87;;;;;;;2.87;100.00;96928.25;4935504;29;20218;-71
2022/11/06 06:19:01;;;;;;;15.77;13.97;;;;;;;2.80;100.00;96929.94;4938814;29;20565;-72
2022/11/06 06:21:26;;;;;;;19.37;14.23;;;;;;;2.72;100.00;96945.53;4938986;29;20214;-72
2022/11/06 06:23:52;;;;;;;20.03;14.20;;;;;;;2.72;100.00;96948.94;4938137;29;20290;-71
2022/11/06 06:26:17;;;;;;;18.60;14.27;;;;;;;2.73;100.00;96937.56;4939259;29;20198;-71
2022/11/06 06:28:42;;;;;;;17.53;14.67;;;;;;;2.72;100.00;96936.00;4921550;29;20198;-71
2022/11/06 06:31:09;;;;;;;17.53;14.67;;;;;;;2.73;100.00;96934.22;4938697;29;20194;-71
2022/11/06 06:33:34;;;;;;;18.10;13.90;;;;;;;2.72;100.00;96933.41;4938520;29;20192;-72
2022/11/06 06:36:04;;;;;;;18.87;14.67;;;;;;;2.82;100.00;96922.81;4940230;29;20182;-73
2022/11/06 06:38:30;;;;;;;19.37;14.97;;;;;;;2.91;100.00;96912.19;4957730;29;20182;-72
2022/11/06 06:41:01;;;;;;;18.97;14.77;;;;;;;3.06;100.00;96907.06;4953323;29;20209;-72
2022/11/06 06:43:26;;;;;;;19.17;14.57;;;;;;;3.10;100.00;96923.03;4957433;29;20574;-72
2022/11/06 06:45:52;;;;;;;19.90;15.90;;;;;;;3.11;100.00;96920.28;4957367;29;20346;-72
2022/11/06 06:48:17;;;;;;;20.03;14.63;;;;;;;3.25;100.00;96921.28;4957471;29;20204;-72
2022/11/06 06:50:42;;;;;;;19.37;14.57;;;;;;;3.40;100.00;96918.72;4957255;29;20551;-72
2022/11/06 06:53:08;;;;;;;17.27;13.90;;;;;;;3.37;100.00;96916.47;4940177;29;20525;-71
2022/11/06 06:55:33;;;;;;;16.93;13.67;;;;;;;3.54;100.00;96913.53;4957464;29;20217;-73
2022/11/06 06:57:59;;;;;;;17.70;13.37;;;;;;;3.58;100.00;96909.59;4923409;29;20186;-72
2022/11/06 07:00:25;;;;;;;19.20;14.47;;;;;;;3.56;100.00;96901.19;4956616;29;20628;-71
2022/11/06 07:02:51;;;;;;;16.57;14.77;;;;;;;3.42;100.00;96902.00;4957459;29;20201;-72
2022/11/06 07:05:16;;;;;;;17.90;15.03;;;;;;;3.56;100.00;96903.00;4957086;29;20185;-72
2022/11/06 07:07:42;;;;;;;19.57;15.83;;;;;;;3.59;100.00;96900.03;4956929;29;20693;-71
2022/11/06 07:10:07;;;;;;;17.13;14.60;;;;;;;3.63;100.00;96894.28;4956862;29;20248;-72
2022/11/06 07:12:32;;;;;;;16.40;13.07;;;;;;;3.61;100.00;96888.50;4941971;29;20186;-71
2022/11/06 07:14:58;;;;;;;12.87;11.50;;;;;;;3.64;100.00;96880.34;4938292;29;20647;-71
2022/11/06 07:17:23;;;;;;;13.93;12.57;;;;;;;3.43;100.00;96882.06;4950129;29;20272;-72
2022/11/06 07:19:48;;;;;;;12.87;11.60;;;;;;;3.43;100.00;96876.91;4952771;29;20211;-72
2022/11/06 07:22:14;;;;;;;11.37;10.27;;;;;;;3.12;100.00;96870.09;4955960;29;20192;-71
2022/11/06 07:24:39;;;;;;;11.97;10.37;;;;;;;2.91;100.00;96873.38;4954869;29;20225;-71
2022/11/06 07:27:04;;;;;;;11.63;10.13;;;;;;;2.79;100.00;96855.84;4943377;29;20217;-71
2022/11/06 07:29:30;;;;;;;11.07;9.70;;;;;;;2.29;100.00;96853.84;4937410;29;20269;-71
2022/11/06 07:31:55;;;;;;;13.00;11.20;;;;;;;2.42;100.00;96856.66;4937575;29;20186;-71
2022/11/06 07:34:20;;;;;;;13.00;11.37;;;;;;;2.46;100.00;96852.75;4920665;29;20205;-72
2022/11/06 07:36:45;;;;;;;11.83;10.63;;;;;;;2.29;100.00;96848.69;4947777;29;20233;-71
2022/11/06 07:39:11;;;;;;;17.30;10.37;;;;;;;2.15;100.00;96847.66;4943133;29;20224;-72
2022/11/06 07:41:36;;;;;;;12.00;9.80;;;;;;;2.02;100.00;96845.63;4937536;29;20571;-72
2022/11/06 07:44:02;;;;;;;16.07;9.17;;;;;;;1.98;100.00;96839.22;4937557;29;20659;-72
2022/11/06 07:46:27;;;;;;;9.27;8.20;;;;;;;2.15;100.00;96826.97;4937383;29;20551;-72
2022/11/06 07:48:53;;;;;;;17.33;9.40;;;;;;;2.33;100.00;96834.44;4937483;29;20190;-72
2022/11/06 07:51:19;;;;;;;14.70;9.33;;;;;;;2.35;100.00;96832.47;4934145;29;20243;-72
2022/11/06 07:53:44;;;;;;;16.97;8.50;;;;;;;2.52;100.00;96828.78;4956100;29;20264;-73
2022/11/06 07:56:10;;;;;;;12.17;8.50;;;;;;;2.63;100.00;96817.19;4956690;29;20181;-72
2022/11/06 07:58:35;;;;;;;19.10;8.33;;;;;;;2.74;100.00;96811.59;4950031;29;20707;-72
2022/11/06 08:01:01;;;;;;;16.13;8.63;;;;;;;2.78;100.00;96807.69;4947457;29;20301;-72
2022/11/06 08:03:28;;;;;;;11.70;7.90;;;;;;;2.69;100.00;96798.38;4940514;29;20241;-72
2022/11/06 08:05:54;;;;;;;9.13;8.30;;;;;;;2.88;100.00;96790.13;4937196;29;20217;-72
2022/11/06 08:08:20;;;;;;;9.20;8.30;;;;;;;2.78;100.00;96794.75;4936906;29;20269;-72
2022/11/06 08:10:46;;;;;;;16.87;9.03;;;;;;;2.88;100.00;96790.13;4937701;29;20197;-72
2022/11/06 08:13:16;;;;;;;15.23;8.90;;;;;;;2.98;100.00;96788.06;4955897;29;20244;-72
2022/11/06 08:15:42;;;;;;;15.50;9.83;;;;;;;2.75;100.00;96782.16;4954323;29;20178;-72
2022/11/06 08:18:09;;;;;;;32.70;29.33;;;;;;;2.80;100.00;96785.00;4930268;29;20260;-72
2022/11/06 08:20:35;;;;;;;20.40;18.47;;;;;;;2.75;100.00;96788.13;4936993;29;20202;-73
2022/11/06 08:23:02;;;;;;;32.90;25.50;;;;;;;2.80;100.00;96782.41;4936817;29;20182;-73
2022/11/06 08:25:29;;;;;;;29.33;17.37;;;;;;;3.08;100.00;96769.66;4936902;29;20253;-72
2022/11/06 08:27:58;;;;;;;10.53;8.77;;;;;;;3.35;100.00;96772.38;4936916;29;20185;-72
2022/11/06 08:30:25;;;;;;;18.90;11.07;;;;;;;3.47;100.00;96764.94;4946976;29;20693;-72
2022/11/06 08:32:51;;;;;;;10.80;9.90;;;;;;;3.38;100.00;96776.41;4955365;29;20208;-72
2022/11/06 08:35:17;;;;;;;12.47;11.37;;;;;;;3.60;100.00;96772.06;4954778;29;20642;-73
2022/11/06 08:37:42;;;;;;;11.23;10.23;;;;;;;3.64;100.00;96771.53;4939614;29;20226;-73
2022/11/06 08:40:09;;;;;;;10.70;9.70;;;;;;;3.87;100.00;96768.75;4927998;29;20261;-72
2022/11/06 08:42:35;;;;;;;11.93;10.83;;;;;;;3.71;100.00;96776.78;4936471;29;20190;-72
2022/11/06 08:45:00;;;;;;;13.00;11.83;;;;;;;4.25;100.00;96776.28;4936152;29;20325;-72
2022/11/06 08:47:25;;;;;;;15.80;14.30;;;;;;;4.11;100.00;96780.56;4936139;29;20186;-72
2022/11/06 08:49:51;;;;;;;12.60;11.30;;;;;;;4.15;100.00;96767.03;4935976;29;20671;-74
2022/11/06 08:52:16;;;;;;;14.23;11.27;;;;;;;4.41;100.00;96758.66;4936477;29;20273;-71
2022/11/06 08:54:41;;;;;;;14.13;11.20;;;;;;;4.59;100.00;96753.00;4936131;29;20257;-72
2022/11/06 08:57:07;;;;;;;12.40;10.70;;;;;;;4.71;100.00;96754.06;4935841;29;20260;-71
2022/11/06 08:59:32;;;;;;;12.70;11.40;;;;;;;4.89;100.00;96761.38;4935958;29;20233;-71
2022/11/06 09:01:58;;;;;;;12.37;11.07;;;;;;;4.94;100.00;96765.00;4936334;29;20277;-71
2022/11/06 09:04:24;;;;;;;14.50;12.47;;;;;;;4.87;100.00;96766.75;4935336;29;20598;-71
2022/11/06 09:06:49;;;;;;;15.37;13.77;;;;;;;5.06;100.00;96764.47;4935862;29;20184;-71
2022/11/06 09:09:15;;;;;;;20.87;19.23;;;;;;;5.28;100.00;96760.75;4935828;29;20269;-71
2022/11/06 09:11:40;;;;;;;14.53;13.13;;;;;;;5.46;100.00;96761.03;4934485;29;20190;-74
2022/11/06 09:14:05;;;;;;;12.33;11.03;;;;;;;5.69;100.00;96769.28;4935609;29;20206;-71
2022/11/06 09:16:31;;;;;;;13.70;12.30;;;;;;;5.82;100.00;96763.31;4935690;29;20670;-71
2022/11/06 09:18:57;;;;;;;14.77;13.23;;;;;;;5.79;100.00;96768.94;4918696;29;20273;-71
2022/11/06 09:21:22;;;;;;;12.13;10.93;;;;;;;5.90;100.00;96765.78;4935464;29;20293;-71
2022/11/06 09:23:48;;;;;;;13.93;12.60;;;;;;;5.93;100.00;96759.38;4935512;29;20182;-71
2022/11/06 09:26:14;;;;;;;14.23;12.83;;;;;;;5.83;100.00;96755.34;4935731;29;20186;-71
2022/11/06 09:28:40;;;;;;;13.10;11.20;;;;;;;6.02;100.00;96753.78;4935051;29;20190;-71
2022/11/06 09:31:06;;;;;;;12.33;11.13;;;;;;;6.17;100.00;96758.81;4918534;29;20194;-71
2022/11/06 09:33:31;;;;;;;12.33;11.23;;;;;;;6.11;100.00;96770.00;4918336;29;20189;-72
2022/11/06 09:35:57;;;;;;;12.40;11.23;;;;;;;6.14;100.00;96788.63;4936531;29;20193;-72
2022/11/06 09:38:22;;;;;;;14.43;13.13;;;;;;;6.13;100.00;96800.03;4936602;29;20220;-71
2022/11/06 09:40:55;;;;;;;13.80;12.50;;;;;;;6.17;100.00;96795.25;4954248;29;20209;-71
2022/11/06 09:43:42;;;;;;;12.63;11.43;;;;;;;6.29;100.00;96790.25;4954827;29;20236;-71
2022/11/06 09:46:23;;;;;;;11.83;10.73;;;;;;;6.55;100.00;96778.03;4937386;29;20200;-72
2022/11/06 09:49:01;;;;;;;10.33;9.43;;;;;;;6.77;100.00;96762.19;4954562;29;20197;-71
2022/11/06 09:51:37;;;;;;;10.13;9.33;;;;;;;6.80;100.00;96759.97;4956143;28;20182;-71
2022/11/06 09:54:14;;;;;;;10.33;9.33;;;;;;;7.02;100.00;96765.75;4958099;29;20686;-71
2022/11/06 09:56:41;;;;;;;10.27;9.27;;;;;;;7.02;100.00;96763.91;4958363;29;20177;-71
2022/11/06 09:59:11;;;;;;;8.97;8.17;;;;;;;7.06;100.00;96752.09;4958480;29;20196;-72
2022/11/06 10:01:43;;;;;;;8.00;7.20;;;;;;;7.37;100.00;96753.19;4958473;29;20202;-70
2022/11/06 10:04:39;;;;;;;8.60;7.87;;;;;;;7.44;100.00;96751.34;4957809;29;20304;-71
2022/11/06 10:07:20;;;;;;;9.93;8.93;;;;;;;7.41;100.00;96736.91;4940182;29;20200;-71
2022/11/06 10:09:45;;;;;;;8.93;8.13;;;;;;;7.59;100.00;96727.59;4957837;29;20201;-71
2022/11/06 10:12:27;;;;;;;9.03;8.30;;;;;;;7.57;100.00;96721.81;4957023;29;20193;-71
2022/11/06 10:15:29;;;;;;;10.03;9.10;;;;;;;7.68;100.00;96715.94;4958025;29;20193;-71
2022/11/06 10:18:10;;;;;;;9.27;8.47;;;;;;;7.66;100.00;96723.16;4926755;29;20202;-71
2022/11/06 10:20:50;;;;;;;10.97;10.07;;;;;;;7.68;100.00;96723.75;4957920;29;20673;-71
2022/11/06 10:23:22;;;;;;;12.90;11.90;;;;;;;7.90;100.00;96714.59;4957393;29;20177;-71
2022/11/06 10:26:07;;;;;;;12.60;11.70;;;;;;;7.88;100.00;96711.38;4958229;29;20682;-72
2022/11/06 10:29:02;;;;;;;12.17;11.27;;;;;;;8.00;100.00;96703.69;4957987;29;20189;-72
2022/11/06 10:31:49;;;;;;;12.33;11.37;;;;;;;7.83;100.00;96691.16;4957282;29;20261;-72
2022/11/06 10:34:28;;;;;;;13.27;12.17;;;;;;;7.96;100.00;96677.22;4957446;29;20650;-74
2022/11/06 10:36:59;;;;;;;10.80;10.00;;;;;;;8.23;100.00;96677.81;4950816;29;20687;-71
2022/11/06 10:39:30;;;;;;;12.17;11.27;;;;;;;8.33;100.00;96672.91;4938194;29;20695;-71
2022/11/06 10:42:02;;;;;;;18.93;17.60;;;;;;;8.26;100.00;96659.88;4938566;29;20246;-71
2022/11/06 10:44:41;;;;;;;10.20;9.40;;;;;;;8.26;100.00;96665.09;4938203;29;20184;-71
2022/11/06 10:47:21;;;;;;;11.07;10.17;;;;;;;8.30;100.00;96658.47;4938464;29;20186;-71
2022/11/06 10:49:54;;;;;;;11.57;10.47;;;;;;;8.46;100.00;96664.16;4906190;29;20182;-71
2022/11/06 10:52:38;;;;;;;10.63;9.73;;;;;;;8.49;100.00;96661.09;4938438;29;20201;-71
2022/11/06 10:55:41;;;;;;;13.30;11.87;;;;;;;8.68;100.00;96647.84;4938251;29;20212;-71
2022/11/06 10:58:12;;;;;;;10.40;9.53;;;;;;;8.58;100.00;96644.94;4925118;29;20201;-71
2022/11/06 11:00:38;;;;;;;11.17;9.97;;;;;;;8.50;100.00;96650.44;4938359;29;20297;-71
2022/11/06 11:03:25;;;;;;;11.10;10.10;;;;;;;8.52;100.00;96637.97;4937212;29;20186;-71
2022/11/06 11:05:51;;;;;;;9.50;8.70;;;;;;;8.56;100.00;96620.84;4938061;29;20194;-71
2022/11/06 11:08:39;;;;;;;11.53;10.63;;;;;;;8.52;100.00;96611.88;4936787;29;20647;-71
2022/11/06 11:11:13;;;;;;;10.67;9.77;;;;;;;8.38;100.00;96607.78;4937099;29;20194;-71
2022/11/06 11:13:42;;;;;;;13.60;9.53;;;;;;;8.39;100.00;96598.13;4937661;29;20245;-71
2022/11/06 11:16:25;;;;;;;10.97;9.87;;;;;;;7.91;100.00;96596.94;4937661;29;20217;-71
2022/11/06 11:18:51;;;;;;;12.03;11.03;;;;;;;8.13;100.00;96584.31;4937237;29;20766;-71
2022/11/06 11:21:25;;;;;;;10.47;9.47;;;;;;;8.22;100.00;96572.56;4937080;29;20293;-71
2022/11/06 11:23:59;;;;;;;9.93;9.03;;;;;;;8.19;100.00;96561.78;4920182;29;20202;-71
2022/11/06 11:26:28;;;;;;;15.53;14.33;;;;;;;8.36;100.00;96562.78;4937541;29;20293;-71
2022/11/06 11:28:55;;;;;;;12.07;11.07;;;;;;;8.65;100.00;96559.44;4937395;29;20719;-72
2022/11/06 11:31:29;;;;;;;10.17;9.27;;;;;;;8.63;100.00;96545.03;4937130;29;20190;-72
2022/11/06 11:33:57;;;;;;;11.60;10.50;;;;;;;8.69;100.00;96539.69;4937499;29;20182;-72
2022/11/06 11:36:22;;;;;;;11.27;10.27;;;;;;;8.75;100.00;96544.03;4939954;29;20697;-72
2022/11/06 11:38:48;;;;;;;11.87;10.83;;;;;;;8.83;100.00;96534.31;4941531;29;20182;-73
2022/11/06 11:41:24;;;;;;;9.13;8.33;;;;;;;8.61;100.00;96526.16;4938990;29;20213;-72
2022/11/06 11:44:12;;;;;;;7.33;6.73;;;;;;;8.53;100.00;96531.66;4947548;29;20331;-72
2022/11/06 11:46:54;;;;;;;8.80;8.10;;;;;;;8.66;100.00;96529.69;4920444;29;20193;-72